Skip Navigation LinksHome page > Weather > Current weather Skip Navigation Links

Current Weather

New Tokyo International (Narita), Tokyo

For information only: do not use for flight planning or navigation.
Latest weather
Observation time Friday, October 20, 2017 1:33 PM JST
Local time Friday, October 20, 2017 1:58 PM JST
Flight conditions Instrument Meteorological Conditions
Winds
Wind direction North-Northwest (340°)
Wind speed 13 mph
Visibility 3.1 mi.
Present weather light rain, mist
Sky condition
Ceiling 700 ft. broken clouds
Cloud layer few clouds 200 ft.
Cloud layer scattered clouds 500 ft.
Cloud layer broken clouds 700 ft.
Temperature 61°F
Dewpoint 61°F
Altimeter 29.94 in.Hg
Derived measurements
Relative humidity 100%
Density altitude 487 ft.
Remarks
Special weather observation.
METAR SPJP31 KWBC 200444 SPECI RJAA 200433Z 34011KT 5000 -RA BR FEW002 SCT005 BKN007 16/16 Q1014 RMK 1ST002 4ST005 6ST007 A2996

Settings

Location code

InnerDrive.Weather 4.0.6144.1 Release CLR 4.0.30319.36366
Copyright ©2015 Inner Drive Technology. All rights reserved. Portions Copyright ©1986-2015 David Braverman.

Find weather

Site navigation


Skip Navigation Links

Place info

Page info

PayPal - The safer, easier way to pay online!

Return home.

Copyright ©2017 Inner Drive Technology. Purveyors of fine, hand-crafted computer software. Page printed 2017-10-20T04:58:48 UTC.